• Join FlightAware (Why Join?)
  • Login
  • US Flag 
11:06PM EDT


 

Airport Tracker/Info


-or-


 

Live Flight TrackerFlight Track Log ✈ BFF202 ✈ 31-Jul-2013 ✈ CMR2 / YMV - CYFB

Flight Track Log - Related Links

Times and Time Zones

All times are in EDT time to prevent confusion due to time zone crossing. See the BFF202 flight status page for this flight to view local times or setup timezone preferences in your user account.

Time Position Orientation Groundspeed Altitude Reporting Facility
EDT Latitude Longitude Course Direction KTS MPH feet Rate Location/Type
05:46PM 69.4899 -75.9361 148° Southeast  Level FlightAware Approximate
05:47PM 69.4318 -75.8390 150° Southeast  Level FlightAware Approximate
05:48PM 69.3737 -75.7423 150° Southeast  Level FlightAware Approximate
05:49PM 69.3154 -75.6462 150° Southeast  Level FlightAware Approximate
05:50PM 69.2572 -75.5506 150° Southeast  Level FlightAware Approximate
05:51PM 69.1989 -75.4555 150° Southeast  Level FlightAware Approximate
05:52PM 69.1405 -75.3609 150° Southeast  Level FlightAware Approximate
05:53PM 69.0820 -75.2668 150° Southeast  Level FlightAware Approximate
05:54PM 69.0236 -75.1732 150° Southeast  Level FlightAware Approximate
05:55PM 68.9650 -75.0801 150° Southeast  Level FlightAware Approximate
05:56PM 68.9064 -74.9875 150° Southeast  Level FlightAware Approximate
05:57PM 68.8478 -74.8954 150° Southeast  Level FlightAware Approximate
05:58PM 68.7891 -74.8038 151° Southeast  Level FlightAware Approximate
05:59PM 68.7304 -74.7127 151° Southeast  Level FlightAware Approximate
06:00PM 68.6716 -74.6220 151° Southeast  Level FlightAware Approximate
06:01PM 68.6126 -74.5345 152° Southeast  Level FlightAware Approximate
06:02PM 68.5535 -74.4474 152° Southeast  Level FlightAware Approximate
06:03PM 68.4944 -74.3608 152° Southeast  Level FlightAware Approximate
06:04PM 68.4352 -74.2746 152° Southeast  Level FlightAware Approximate
06:05PM 68.3760 -74.1889 152° Southeast  Level FlightAware Approximate
06:06PM 68.3167 -74.1036 152° Southeast  Level FlightAware Approximate
06:07PM 68.2574 -74.0188 152° Southeast  Level FlightAware Approximate
06:08PM 68.1980 -73.9344 152° Southeast  Level FlightAware Approximate
06:09PM 68.1386 -73.8505 152° Southeast  Level FlightAware Approximate
06:10PM 68.0792 -73.7669 152° Southeast  Level FlightAware Approximate
06:11PM 68.0197 -73.6839 152° Southeast  Level FlightAware Approximate
06:12PM 67.9602 -73.6012 152° Southeast  Level FlightAware Approximate
06:13PM 67.9006 -73.5190 153° Southeast  Level FlightAware Approximate
06:14PM 67.8410 -73.4371 153° Southeast  Level FlightAware Approximate
06:15PM 67.7814 -73.3557 153° Southeast  Level FlightAware Approximate
06:16PM 67.7217 -73.2747 153° Southeast  Level FlightAware Approximate
06:17PM 67.6620 -73.1942 153° Southeast  Level FlightAware Approximate
06:18PM 67.6022 -73.1129 152° Southeast  Level FlightAware Approximate
06:19PM 67.5430 -73.0300 152° Southeast  Level FlightAware Approximate
06:20PM 67.4838 -72.9474 152° Southeast  Level FlightAware Approximate
06:21PM 67.4245 -72.8652 152° Southeast  Level FlightAware Approximate
06:22PM 67.3652 -72.7835 152° Southeast  Level FlightAware Approximate
06:23PM 67.3059 -72.7022 152° Southeast  Level FlightAware Approximate
06:24PM 67.2466 -72.6212 152° Southeast  Level FlightAware Approximate
06:25PM 67.1871 -72.5407 152° Southeast  Level FlightAware Approximate
06:26PM 67.1277 -72.4606 152° Southeast  Level FlightAware Approximate
06:27PM 67.0682 -72.3808 152° Southeast  Level FlightAware Approximate
06:28PM 67.0087 -72.3015 152° Southeast  Level FlightAware Approximate
06:29PM 66.9491 -72.2225 153° Southeast  Level FlightAware Approximate
06:30PM 66.8895 -72.1439 153° Southeast  Level FlightAware Approximate
06:31PM 66.8298 -72.0657 153° Southeast  Level FlightAware Approximate
06:32PM 66.7701 -71.9879 153° Southeast  Level FlightAware Approximate
06:33PM 66.7104 -71.9105 153° Southeast  Level FlightAware Approximate
06:34PM 66.6507 -71.8334 153° Southeast  Level FlightAware Approximate
06:35PM 66.5909 -71.7567 153° Southeast  Level FlightAware Approximate
06:36PM 66.5310 -71.6804 153° Southeast  Level FlightAware Approximate
06:37PM 66.4711 -71.6044 153° Southeast  Level FlightAware Approximate
06:38PM 66.4112 -71.5288 153° Southeast  Level FlightAware Approximate
06:39PM 66.3513 -71.4536 153° Southeast  Level FlightAware Approximate
06:40PM 66.2913 -71.3787 153° Southeast  Level FlightAware Approximate
06:41PM 66.2313 -71.3042 153° Southeast  Level FlightAware Approximate
06:42PM 66.1712 -71.2300 153° Southeast  Level FlightAware Approximate
06:43PM 66.1111 -71.1562 154° Southeast  Level FlightAware Approximate
06:44PM 66.0510 -71.0827 154° Southeast  Level FlightAware Approximate
06:45PM 65.9908 -71.0096 154° Southeast  Level FlightAware Approximate
06:46PM 65.9306 -70.9369 154° Southeast  Level FlightAware Approximate
06:47PM 65.8704 -70.8644 154° Southeast  Level FlightAware Approximate
06:47PM 66.5333 -71.4833 154° Southeast 270 311 27,000  Level Edmonton Center
06:48PM 65.8101 -70.7923 154° Southeast  Level FlightAware Approximate
06:48PM 66.4667 -71.4000 153° Southeast 250 288 27,000  Level Edmonton Center
06:49PM 65.7498 -70.7206 154° Southeast  Level FlightAware Approximate
06:49PM 66.4000 -71.3333 158° South 250 288 27,000  Level Edmonton Center
06:50PM 65.6895 -70.6491 154° Southeast  Level FlightAware Approximate
06:50PM 66.3500 -71.2333 141° Southeast 250 288 27,000  Level Edmonton Center
06:51PM 65.6291 -70.5781 154° Southeast  Level FlightAware Approximate
06:51PM 66.2833 -71.1333 149° Southeast 250 288 27,000  Level Edmonton Center
06:52PM 65.5687 -70.5073 154° Southeast  Level FlightAware Approximate
06:52PM 66.2167 -71.1000 169° South 250 288 26,900  Level Edmonton Center
06:53PM 66.1667 -71.0333 152° Southeast 250 288 27,000  Climbing Edmonton Center
06:54PM 66.1000 -70.9333 149° Southeast 250 288 27,000  Level Edmonton Center
06:55PM 66.0167 -70.8500 158° South 250 288 27,000  Level Edmonton Center
06:56PM 65.9667 -70.7833 151° Southeast 250 288 27,000  Level Edmonton Center
06:57PM 65.9000 -70.7500 168° South 250 288 27,000  Level Edmonton Center
06:58PM 65.8333 -70.6500 148° Southeast 250 288 27,000  Level Edmonton Center
06:59PM 65.7833 -70.5833 151° Southeast 250 288 27,000  Level Edmonton Center
07:00PM 65.7167 -70.4833 148° Southeast 250 288 27,000  Level Edmonton Center
07:01PM 65.6667 -70.4167 151° Southeast 250 288 27,100  Climbing Edmonton Center
07:02PM 65.5833 -70.3500 162° South 250 288 27,000 -60 Descending Edmonton Center
07:03PM 65.5333 -70.2833 151° Southeast 250 288 27,000  Level Edmonton Center
07:04PM 65.4500 -70.2167 162° South 250 288 27,000 -60 Level Edmonton Center
07:05PM 65.4000 -70.1500 151° Southeast 250 288 26,900  Descending Edmonton Center
07:06PM 65.3333 -70.0500 148° Southeast 250 288 27,000  Climbing Edmonton Center
07:07PM 65.3500 -70.2000 285° West 250 288 26,900 -60 Descending Montreal Center
07:08PM 65.2667 -70.0833 150° Southeast 250 288 26,900  Level Montreal Center
07:09PM 65.2000 -70.0333 163° South 250 288 27,000 -240 Climbing Montreal Center
07:10PM 65.1500 -69.9500 145° Southeast 250 288 26,500 -600 Descending Montreal Center
07:11PM 65.0833 -69.9000 162° South 260 299 25,800 -720 Descending Montreal Center
07:12PM 65.0167 -69.8333 157° South 270 311 25,100 -780 Descending Montreal Center
07:13PM 64.9333 -69.7333 153° Southeast 280 322 24,300 -780 Descending Montreal Center
07:14PM 64.8667 -69.6667 157° South 280 322 23,600 -960 Descending Montreal Center
07:15PM 64.8000 -69.6000 157° South 280 322 22,400 -1,260 Descending Montreal Center
07:16PM 64.7333 -69.5000 147° Southeast 280 322 21,100 -1,440 Descending Montreal Center
07:17PM 64.6667 -69.4333 157° South 290 334 19,600 -1,500 Descending Montreal Center
07:18PM 64.5833 -69.3333 153° Southeast 280 322 18,100 -1,560 Descending Montreal Center
07:19PM 64.5167 -69.2667 157° South 280 322 16,500 -1,680 Descending Montreal Center
07:20PM 64.4500 -69.1667 147° Southeast 280 322 14,800 -1,680 Descending Montreal Center
07:21PM 64.3833 -69.1167 162° South 280 322 13,200 -1,800 Descending Montreal Center
07:22PM 64.3167 -69.0500 157° South 270 311 11,300 -1,800 Descending Montreal Center
07:23PM 64.2333 -69.0000 165° South 270 311 9,600 -1,680 Descending Montreal Center
07:24PM 64.1833 -68.8833 135° Southeast 260 299 8,000 -1,680 Descending Montreal Center
07:25PM 64.1167 -68.8333 162° South 260 299 6,300 -1,440 Descending Montreal Center
07:26PM 64.0500 -68.7667 156° South 250 288 5,200 -1,080 Descending Montreal Center
07:27PM 64.0000 -68.7000 150° Southeast 230 265 4,200 -660 Descending Montreal Center
07:28PM 63.9333 -68.6500 162° South 210 242 3,900 -600 Descending Montreal Center
07:29PM 63.8833 -68.5833 150° Southeast 200 230 3,100 -780 Descending Montreal Center
07:30PM 63.8333 -68.5167 150° Southeast 210 242 2,400 -900 Descending Montreal Center
07:31PM 63.7833 -68.5333 188° South 220 253 1,400 -600 Descending Montreal Center
07:32PM 63.7333 -68.5500 188° South 170 196 1,300 -360 Descending Montreal Center
07:33PM 63.7333 -68.4333 90° East 150 173 700 -420 Descending Montreal Center
07:34PM 63.7667 -68.4667 336° Northwest 120 138 500 -300 Descending Montreal Center
07:35PM 63.7833 -68.5000 319° Northwest 100 115 100 -420 Descending Montreal Center